Time;durP1;ratioP1;P1;durP2;ratioP2;P2;SDS_P1;SDS_P2;PMS_P1;PMS_P2;Temp;Humidity;BMP_temperature;BMP_pressure;BME280_temperature;BME280_humidity;BME280_pressure;Samples;Min_cycle;Max_cycle;Signal;HPM_P1;HPM_P2
2022/01/26 00:07:08;;;;;;;197.38;161.15;;;;;;;14.59;31.37;94833.88;5045889;28;20329;-65
2022/01/26 00:09:34;;;;;;;199.10;161.68;;;;;;;14.58;31.44;94829.66;5045959;28;20561;-66
2022/01/26 00:11:59;;;;;;;202.95;164.60;;;;;;;14.58;31.22;94824.28;5047120;28;20041;-66
2022/01/26 00:14:24;;;;;;;195.23;158.55;;;;;;;14.57;31.30;94825.44;5041455;28;20052;-66
2022/01/26 00:16:50;;;;;;;199.77;162.40;;;;;;;14.57;31.25;94827.38;5045790;28;21021;-65
2022/01/26 00:19:28;;;;;;;204.68;166.50;;;;;;;14.57;31.27;94827.38;5046333;28;20037;-66
2022/01/26 00:21:56;;;;;;;195.98;157.60;;;;;;;14.57;31.32;94824.69;5051104;28;20170;-66
2022/01/26 00:27:09;;;;;;;199.55;161.00;;;;;;;14.54;31.03;94823.56;5044263;28;20087;-66
2022/01/26 00:29:38;;;;;;;192.73;155.10;;;;;;;14.55;31.18;94822.41;5047031;28;20178;-66
2022/01/26 00:42:49;;;;;;;194.40;156.88;;;;;;;14.55;31.21;94816.25;5049290;28;20048;-66
2022/01/26 00:45:20;;;;;;;195.10;156.60;;;;;;;14.55;31.20;94816.25;5046494;28;20098;-67
2022/01/26 00:47:46;;;;;;;194.15;157.60;;;;;;;14.54;31.15;94809.34;5047232;28;20415;-66
2022/01/26 00:50:12;;;;;;;195.30;158.57;;;;;;;14.54;31.13;94814.75;5050968;28;20044;-67
2022/01/26 00:52:41;;;;;;;193.43;156.77;;;;;;;14.54;31.21;94812.06;5048472;28;20049;-67
2022/01/26 00:55:09;;;;;;;193.57;157.45;;;;;;;14.53;31.44;94811.28;5048438;28;20130;-65
2022/01/26 00:57:34;;;;;;;198.85;161.65;;;;;;;14.53;31.17;94797.06;5045759;28;20052;-67
2022/01/26 01:00:00;;;;;;;197.27;160.15;;;;;;;14.52;31.18;94793.63;5048647;28;20047;-66
2022/01/26 01:02:26;;;;;;;203.13;163.52;;;;;;;14.50;31.34;94794.03;5045106;28;20047;-66
2022/01/26 01:04:54;;;;;;;198.70;160.75;;;;;;;14.52;31.41;94798.25;5046491;28;20417;-66
2022/01/26 01:07:22;;;;;;;200.27;161.85;;;;;;;14.50;31.28;94796.72;5047437;28;20049;-66
2022/01/26 01:09:47;;;;;;;194.02;155.35;;;;;;;14.50;31.12;94794.03;5044972;28;20041;-65
2022/01/26 01:12:13;;;;;;;205.15;165.43;;;;;;;14.50;31.26;94801.34;5042953;28;20056;-67
2022/01/26 01:14:41;;;;;;;197.52;159.07;;;;;;;14.50;31.23;94795.97;5045562;28;20049;-66
2022/01/26 01:17:10;;;;;;;196.93;158.30;;;;;;;14.49;31.33;94789.06;5047244;28;20053;-65
2022/01/26 01:19:46;;;;;;;195.77;157.50;;;;;;;14.49;31.34;94791.75;5046646;28;20045;-66
2022/01/26 01:25:16;;;;;;;199.48;159.77;;;;;;;14.47;31.29;94796.78;5046923;28;20423;-66
2022/01/26 01:27:58;;;;;;;199.13;159.07;;;;;;;14.47;31.17;94796.78;5049547;28;20133;-66
2022/01/26 01:30:34;;;;;;;197.77;156.02;;;;;;;14.47;31.23;94794.09;5042654;28;20045;-66
2022/01/26 01:33:10;;;;;;;197.68;158.00;;;;;;;14.46;31.35;94787.19;5045820;28;20962;-66
2022/01/26 01:35:40;;;;;;;193.15;154.98;;;;;;;14.47;31.18;94786.03;5039522;28;20044;-66
2022/01/26 01:38:10;;;;;;;201.23;160.23;;;;;;;14.46;31.21;94782.56;5042607;28;20044;-66
2022/01/26 01:40:42;;;;;;;192.93;154.27;;;;;;;14.47;31.28;94783.31;5044254;28;20048;-66
2022/01/26 01:43:08;;;;;;;194.40;156.38;;;;;;;14.45;31.30;94781.06;5048491;28;20037;-66
2022/01/26 01:45:37;;;;;;;200.25;160.85;;;;;;;14.46;31.14;94785.25;5044802;28;20051;-66
2022/01/26 01:48:04;;;;;;;195.70;157.02;;;;;;;14.45;31.16;94780.28;5050033;28;20045;-65
2022/01/26 01:50:30;;;;;;;192.73;154.75;;;;;;;14.46;31.27;94776.44;5045222;28;20064;-66
2022/01/26 01:53:00;;;;;;;193.77;154.40;;;;;;;14.45;31.21;94777.59;5048460;28;20045;-66
2022/01/26 01:55:29;;;;;;;192.98;153.73;;;;;;;14.43;31.32;94780.69;5045940;28;20037;-66
2022/01/26 01:57:58;;;;;;;194.95;155.57;;;;;;;14.45;31.29;94774.91;5043509;28;20056;-66
2022/01/26 02:00:25;;;;;;;192.27;153.30;;;;;;;14.45;30.97;94777.59;5045654;28;20041;-66
2022/01/26 02:02:50;;;;;;;189.23;151.88;;;;;;;14.44;31.21;94782.22;5045663;28;20109;-66
2022/01/26 02:05:17;;;;;;;194.13;155.75;;;;;;;14.43;31.51;94780.69;5045819;28;20045;-65
2022/01/26 02:07:43;;;;;;;190.40;153.00;;;;;;;14.44;31.17;94787.59;5040553;28;20037;-65
2022/01/26 02:10:09;;;;;;;196.85;158.35;;;;;;;14.43;31.28;94786.09;5042600;28;20075;-66
2022/01/26 02:12:39;;;;;;;206.32;166.60;;;;;;;14.43;31.18;94778.00;5045092;28;20096;-66
2022/01/26 02:15:08;;;;;;;190.95;153.52;;;;;;;14.42;31.24;94781.88;5041896;28;20049;-65
2022/01/26 02:18:08;;;;;;;190.73;153.98;;;;;;;14.42;31.15;94781.09;5045313;28;20041;-67
2022/01/26 02:52:49;;;;;;;207.27;165.48;;;;;;;14.38;31.41;94743.47;5042663;28;20112;-66
2022/01/26 02:55:35;;;;;;;195.55;155.25;;;;;;;14.40;31.31;94761.91;5042715;28;20053;-66
2022/01/26 03:01:09;;;;;;;192.98;152.80;;;;;;;14.39;31.36;94753.06;5046519;28;20513;-66
2022/01/26 03:03:41;;;;;;;193.35;152.18;;;;;;;14.39;31.29;94750.38;5040817;28;20047;-65
2022/01/26 03:06:12;;;;;;;192.40;154.57;;;;;;;14.38;31.28;94743.47;5043689;28;20044;-66
2022/01/26 03:08:43;;;;;;;195.85;154.80;;;;;;;14.39;31.17;94745.00;5043961;28;20033;-65
2022/01/26 03:11:12;;;;;;;199.15;159.27;;;;;;;14.39;31.25;94747.69;5049807;28;20056;-66
2022/01/26 03:13:44;;;;;;;191.88;152.32;;;;;;;14.40;31.36;94749.19;5047203;28;20181;-65
2022/01/26 03:16:15;;;;;;;191.07;151.05;;;;;;;14.39;31.46;94755.75;5042159;28;20099;-66
2022/01/26 03:21:50;;;;;;;193.52;153.85;;;;;;;14.38;31.21;94746.16;5007281;28;20044;-65
2022/01/26 03:29:59;;;;;;;192.13;153.48;;;;;;;14.38;31.35;94756.94;5045196;28;20041;-66
2022/01/26 03:35:16;;;;;;;194.15;153.68;;;;;;;14.37;31.40;94757.34;5028993;28;20061;-66
2022/01/26 03:37:52;;;;;;;191.43;151.52;;;;;;;14.39;31.30;94765.75;5042629;28;20064;-66
2022/01/26 03:40:18;;;;;;;196.73;155.10;;;;;;;14.38;31.35;94753.47;5045570;28;20103;-67
2022/01/26 03:42:44;;;;;;;192.55;153.60;;;;;;;14.39;31.32;94761.13;5045322;28;20463;-67
2022/01/26 03:45:09;;;;;;;207.00;165.07;;;;;;;14.39;31.21;94760.38;5043317;28;20049;-67
2022/01/26 03:47:35;;;;;;;188.68;150.20;;;;;;;14.37;31.30;94750.03;5038638;28;20059;-67
2022/01/26 03:50:00;;;;;;;194.40;155.05;;;;;;;14.37;31.33;94754.66;5044558;28;20047;-66
2022/01/26 03:52:26;;;;;;;199.05;159.70;;;;;;;14.37;31.22;94752.72;5046576;28;20075;-66
2022/01/26 03:54:51;;;;;;;198.38;158.05;;;;;;;14.37;31.08;94754.66;5044389;28;20041;-65
2022/01/26 03:57:17;;;;;;;190.95;152.85;;;;;;;14.37;31.01;94757.34;5040985;28;20045;-66
2022/01/26 03:59:42;;;;;;;200.00;160.90;;;;;;;14.36;31.12;94759.25;5047185;28;20413;-66
2022/01/26 04:02:08;;;;;;;196.30;157.65;;;;;;;14.38;31.16;94761.53;5040121;28;20049;-66
2022/01/26 04:04:41;;;;;;;192.45;154.07;;;;;;;14.37;31.28;94762.72;5046217;28;20127;-66
2022/01/26 04:07:07;;;;;;;194.80;153.75;;;;;;;14.37;31.26;94754.66;5044673;28;20036;-66
2022/01/26 04:09:32;;;;;;;198.52;158.68;;;;;;;14.36;31.07;94764.66;5044987;28;20045;-66
2022/01/26 04:11:59;;;;;;;193.23;154.82;;;;;;;14.35;31.15;94765.81;5046740;28;20072;-66
2022/01/26 04:14:28;;;;;;;199.30;158.52;;;;;;;14.36;31.08;94771.97;5042869;28;20069;-65
2022/01/26 04:16:54;;;;;;;204.10;161.98;;;;;;;14.35;31.07;94771.19;5046204;28;20128;-66
2022/01/26 04:19:21;;;;;;;195.82;156.20;;;;;;;14.34;31.18;94761.59;5044086;28;20520;-66
2022/01/26 04:24:39;;;;;;;191.63;152.50;;;;;;;14.36;31.01;94771.97;5042009;28;20057;-66
2022/01/26 04:27:16;;;;;;;196.23;155.07;;;;;;;14.35;31.07;94768.50;5042895;28;20042;-66
2022/01/26 04:29:41;;;;;;;198.63;158.52;;;;;;;14.35;31.07;94773.13;5045839;28;20041;-65
2022/01/26 04:32:08;;;;;;;191.20;151.38;;;;;;;14.33;31.09;94778.16;5045955;28;20056;-66
2022/01/26 04:34:35;;;;;;;202.88;162.77;;;;;;;14.34;31.23;94777.00;5041705;28;20056;-66
2022/01/26 04:39:33;;;;;;;193.88;153.80;;;;;;;14.33;31.22;94780.84;5039628;28;20041;-65
2022/01/26 04:42:03;;;;;;;189.38;149.80;;;;;;;14.32;30.94;94779.34;5038986;28;20413;-67
2022/01/26 04:44:35;;;;;;;205.40;163.07;;;;;;;14.32;31.26;94769.31;5039344;28;20057;-66
2022/01/26 04:47:00;;;;;;;195.80;156.55;;;;;;;14.33;31.02;94778.16;5042700;28;20049;-66
2022/01/26 04:49:26;;;;;;;207.82;167.20;;;;;;;14.32;31.09;94774.72;5045567;28;20139;-67
2022/01/26 04:51:51;;;;;;;196.18;155.35;;;;;;;14.34;31.08;94779.69;5045469;28;20162;-66
2022/01/26 04:54:17;;;;;;;207.75;165.75;;;;;;;14.33;31.01;94772.78;5039524;28;20053;-65
2022/01/26 04:56:43;;;;;;;197.68;158.50;;;;;;;14.32;31.05;94777.41;5046963;28;20056;-66
2022/01/26 04:59:09;;;;;;;189.15;149.77;;;;;;;14.32;30.88;94773.94;5046347;28;20041;-67
2022/01/26 05:01:34;;;;;;;193.75;155.30;;;;;;;14.33;31.20;94773.53;5047605;28;20056;-66
2022/01/26 05:04:00;;;;;;;196.40;155.93;;;;;;;14.33;31.26;94778.16;5044763;28;20055;-66
2022/01/26 05:06:26;;;;;;;202.20;161.02;;;;;;;14.32;31.01;94774.72;5045986;28;20063;-66
2022/01/26 05:08:51;;;;;;;193.15;154.55;;;;;;;14.32;31.10;94776.66;5042133;28;20417;-67
2022/01/26 05:11:27;;;;;;;199.75;159.25;;;;;;;14.32;30.86;94774.72;5043306;28;20045;-67
2022/01/26 05:13:55;;;;;;;187.50;149.32;;;;;;;14.32;31.06;94773.94;5044664;28;20146;-65
2022/01/26 05:16:20;;;;;;;196.57;156.82;;;;;;;14.32;30.88;94782.78;5043838;28;20457;-69
2022/01/26 05:18:46;;;;;;;197.35;156.45;;;;;;;14.33;31.01;94784.31;5048314;28;20049;-65
2022/01/26 05:21:11;;;;;;;195.05;154.95;;;;;;;14.32;30.85;94782.78;5045594;28;20424;-67
2022/01/26 05:23:37;;;;;;;193.60;154.88;;;;;;;14.32;31.03;94788.16;5042636;28;20052;-66
2022/01/26 05:26:02;;;;;;;207.50;164.55;;;;;;;14.33;30.92;94786.22;5044372;28;20033;-66
2022/01/26 05:28:28;;;;;;;206.18;164.30;;;;;;;14.33;30.88;94792.38;5043185;28;20366;-66
2022/01/26 05:30:53;;;;;;;194.88;155.77;;;;;;;14.31;30.81;94789.34;5045178;28;20574;-67
2022/01/26 05:33:20;;;;;;;195.30;155.52;;;;;;;14.33;30.92;94791.63;5042352;28;20048;-66
2022/01/26 05:35:45;;;;;;;198.50;158.55;;;;;;;14.35;30.82;94802.72;5045776;28;20124;-65
2022/01/26 05:38:11;;;;;;;195.98;156.65;;;;;;;14.33;30.95;94794.31;5046384;28;20067;-67
2022/01/26 05:40:37;;;;;;;196.70;156.98;;;;;;;14.33;30.79;94797.00;5046476;28;20043;-65
2022/01/26 05:43:02;;;;;;;188.18;149.15;;;;;;;14.33;30.93;94795.06;5046377;28;20048;-66
2022/01/26 05:45:33;;;;;;;193.93;154.48;;;;;;;14.35;30.72;94802.72;5047261;28;20076;-66
2022/01/26 05:48:02;;;;;;;198.55;158.27;;;;;;;14.34;30.38;94787.75;5043818;28;20047;-65
2022/01/26 05:50:28;;;;;;;190.18;150.25;;;;;;;14.36;30.66;94804.25;5041211;28;20342;-66
2022/01/26 05:52:54;;;;;;;195.02;155.93;;;;;;;14.36;30.78;94798.88;5046271;28;20629;-65
2022/01/26 05:55:19;;;;;;;197.43;155.65;;;;;;;14.37;30.53;94803.06;5042128;28;20044;-66
2022/01/26 05:57:45;;;;;;;190.65;150.65;;;;;;;14.37;30.64;94809.22;5046827;28;20798;-65
2022/01/26 06:00:11;;;;;;;202.82;161.98;;;;;;;14.39;30.59;94811.50;5041651;28;20421;-65
2022/01/26 06:02:37;;;;;;;202.70;160.95;;;;;;;14.39;30.62;94808.81;5043848;28;20594;-65
2022/01/26 06:05:03;;;;;;;190.73;152.18;;;;;;;14.41;30.51;94811.84;5048663;28;20059;-66
2022/01/26 06:07:28;;;;;;;196.98;157.43;;;;;;;14.41;30.44;94812.66;5042379;28;20041;-66
2022/01/26 06:09:54;;;;;;;194.68;156.18;;;;;;;14.41;30.33;94815.34;5045793;28;20044;-65
2022/01/26 06:12:19;;;;;;;199.23;160.00;;;;;;;14.44;30.29;94813.75;5041871;28;20041;-65
2022/01/26 06:14:45;;;;;;;187.57;148.63;;;;;;;14.44;30.33;94822.59;5042617;28;20044;-66
2022/01/26 06:17:10;;;;;;;196.55;157.15;;;;;;;14.44;30.31;94808.38;5043166;28;20053;-65
2022/01/26 06:19:36;;;;;;;197.40;158.20;;;;;;;14.44;30.30;94806.44;5046393;28;20041;-66
2022/01/26 06:22:02;;;;;;;198.70;160.90;;;;;;;14.44;30.29;94805.69;5044740;28;20457;-66
2022/01/26 06:24:27;;;;;;;195.18;156.25;;;;;;;14.45;30.49;94805.28;5041990;28;20053;-65
2022/01/26 06:26:53;;;;;;;198.15;157.30;;;;;;;14.46;30.38;94806.03;5045247;28;20701;-65
2022/01/26 06:29:18;;;;;;;196.23;156.77;;;;;;;14.46;30.26;94806.78;5046383;28;20115;-65
2022/01/26 06:31:44;;;;;;;195.20;157.70;;;;;;;14.46;30.27;94801.41;5044698;28;20056;-66
2022/01/26 06:34:11;;;;;;;198.77;159.27;;;;;;;14.47;30.36;94797.53;5043825;28;20497;-64
2022/01/26 06:36:43;;;;;;;190.10;151.80;;;;;;;14.46;30.26;94789.88;5044073;28;20683;-65
2022/01/26 06:39:10;;;;;;;193.75;154.90;;;;;;;14.49;30.22;94794.44;5040248;28;20103;-64
2022/01/26 06:41:36;;;;;;;190.93;151.82;;;;;;;14.48;30.19;94793.69;5043829;28;20045;-64
2022/01/26 06:44:13;;;;;;;202.63;162.85;;;;;;;14.49;30.05;94786.38;5042444;28;20044;-65
2022/01/26 06:51:53;;;;;;;195.63;157.23;;;;;;;14.49;30.34;94797.13;5043332;28;20052;-66
2022/01/26 06:54:18;;;;;;;;;;;;;;;14.48;30.12;94796.38;5040075;28;20518;-65
2022/01/26 06:56:45;;;;;;;197.70;153.02;;;;;;;14.49;30.31;94800.59;5040815;28;20106;-66
2022/01/26 06:59:11;;;;;;;188.88;149.85;;;;;;;14.50;30.28;94809.41;5044013;28;20067;-65
2022/01/26 07:01:37;;;;;;;193.43;154.10;;;;;;;14.50;30.29;94799.41;5045838;28;20153;-66
2022/01/26 07:04:03;;;;;;;201.68;161.38;;;;;;;14.50;30.12;94796.72;5042349;28;20175;-65
2022/01/26 07:06:29;;;;;;;201.40;161.82;;;;;;;14.52;30.06;94800.94;5041254;28;20151;-65
2022/01/26 07:08:54;;;;;;;191.85;154.25;;;;;;;14.53;30.19;94802.47;5042820;28;20174;-65
2022/01/26 07:11:20;;;;;;;197.00;157.52;;;;;;;14.52;30.22;94801.69;5045865;28;20056;-65
2022/01/26 07:13:46;;;;;;;193.95;154.48;;;;;;;14.52;30.18;94807.06;5042767;28;20051;-65
2022/01/26 07:21:39;;;;;;;195.40;155.93;;;;;;;14.53;30.25;94821.28;5045053;28;20045;-65
2022/01/26 07:24:05;;;;;;;199.75;160.13;;;;;;;14.53;30.10;94819.38;5040364;28;20059;-66
2022/01/26 07:26:31;;;;;;;189.88;152.82;;;;;;;14.53;30.28;94815.91;5041283;28;20048;-66
2022/01/26 07:28:58;;;;;;;198.63;160.38;;;;;;;14.55;30.20;94818.97;5042620;28;20135;-66
2022/01/26 07:31:24;;;;;;;208.52;167.50;;;;;;;14.54;30.01;94820.13;5041649;28;20041;-69
2022/01/26 07:33:54;;;;;;;201.77;162.02;;;;;;;14.55;30.26;94830.47;5035944;28;20148;-68
2022/01/26 07:36:21;;;;;;;205.77;164.10;;;;;;;14.55;30.07;94830.47;5034828;28;20048;-68
2022/01/26 07:38:50;;;;;;;196.63;158.02;;;;;;;14.56;30.13;94834.69;5031363;28;20681;-68
2022/01/26 07:41:15;;;;;;;202.05;161.32;;;;;;;14.57;30.04;94827.38;5037086;28;20071;-68
2022/01/26 07:43:41;;;;;;;195.27;157.35;;;;;;;14.56;30.08;94823.94;5039151;28;20398;-65
2022/01/26 07:46:08;;;;;;;203.50;164.23;;;;;;;14.57;29.97;94812.00;5044649;28;20056;-64
2022/01/26 07:48:34;;;;;;;200.18;160.38;;;;;;;14.57;30.28;94820.06;5041004;28;20049;-65
2022/01/26 07:50:59;;;;;;;193.48;155.93;;;;;;;14.57;30.37;94819.31;5039689;28;20378;-66
2022/01/26 07:53:25;;;;;;;193.45;156.05;;;;;;;14.59;30.05;94822.34;5042517;28;20074;-66
2022/01/26 07:55:50;;;;;;;190.25;153.63;;;;;;;14.58;30.25;94816.19;5042880;28;20151;-66
2022/01/26 07:58:18;;;;;;;210.73;168.55;;;;;;;14.59;30.09;94819.66;5039053;28;20442;-66
2022/01/26 08:00:44;;;;;;;190.77;153.55;;;;;;;14.60;30.04;94813.84;5039433;28;20036;-66
2022/01/26 08:03:10;;;;;;;190.32;153.85;;;;;;;14.61;30.34;94817.31;5057934;28;20060;-65
2022/01/26 08:05:36;;;;;;;193.85;156.07;;;;;;;14.60;30.05;94813.09;5045890;28;20488;-65
2022/01/26 08:08:01;;;;;;;188.57;151.65;;;;;;;14.62;29.91;94818.84;5040620;28;20049;-66
2022/01/26 08:10:27;;;;;;;192.85;153.93;;;;;;;14.62;30.17;94824.22;5043964;28;20051;-65
2022/01/26 08:12:52;;;;;;;191.43;155.15;;;;;;;14.58;29.82;94812.75;5042417;28;20094;-65
2022/01/26 08:15:18;;;;;;;205.77;166.57;;;;;;;14.53;30.08;94819.38;5045338;28;20052;-66
2022/01/26 08:17:45;;;;;;;187.05;150.95;;;;;;;14.52;30.28;94804.38;5041889;28;20040;-66
2022/01/26 08:20:11;;;;;;;194.88;157.73;;;;;;;14.55;30.07;94803.56;5046259;28;20108;-65
2022/01/26 08:22:37;;;;;;;199.63;160.82;;;;;;;14.58;30.16;94808.13;5046295;28;20037;-65
2022/01/26 08:25:03;;;;;;;194.43;157.13;;;;;;;14.58;30.12;94805.44;5045713;28;20183;-65
2022/01/26 08:27:37;;;;;;;193.75;156.88;;;;;;;14.57;30.13;94806.59;5046350;28;20051;-65
2022/01/26 08:30:08;;;;;;;190.85;153.15;;;;;;;14.57;30.11;94808.53;5046056;28;20049;-66
2022/01/26 08:32:34;;;;;;;209.20;169.05;;;;;;;14.52;30.39;94809.00;5049149;28;20120;-66
2022/01/26 08:34:59;;;;;;;195.98;158.73;;;;;;;14.49;30.41;94799.81;5048104;28;20174;-66
2022/01/26 08:37:25;;;;;;;189.65;153.98;;;;;;;14.52;30.13;94796.31;5045531;28;20143;-66
2022/01/26 08:39:50;;;;;;;196.43;156.55;;;;;;;14.49;30.21;94795.22;5044232;28;20097;-66
2022/01/26 08:42:16;;;;;;;194.52;157.52;;;;;;;14.49;30.21;94787.13;5050099;28;20059;-65
2022/01/26 08:44:42;;;;;;;188.00;151.73;;;;;;;14.49;30.16;94799.81;5051928;28;20055;-65
2022/01/26 08:47:07;;;;;;;190.45;153.98;;;;;;;14.45;30.21;94796.44;5048765;28;20041;-65
2022/01/26 08:49:33;;;;;;;189.13;152.43;;;;;;;14.40;30.30;94803.03;5047336;28;21048;-66
2022/01/26 08:51:59;;;;;;;198.50;158.50;;;;;;;14.36;30.13;94799.63;5044916;28;20036;-65
2022/01/26 08:54:25;;;;;;;192.07;154.65;;;;;;;14.40;30.25;94797.63;5041242;28;20053;-64
2022/01/26 08:56:52;;;;;;;194.98;157.38;;;;;;;14.25;30.10;94798.31;5050188;28;20119;-65
2022/01/26 08:59:21;;;;;;;190.88;153.18;;;;;;;14.29;30.40;94796.31;5046245;28;20036;-65
2022/01/26 09:01:46;;;;;;;191.63;155.48;;;;;;;14.39;30.19;94785.34;5044111;28;20068;-64
2022/01/26 09:04:13;;;;;;;189.65;151.38;;;;;;;14.44;30.14;94790.28;5043946;28;20148;-65
2022/01/26 09:06:50;;;;;;;195.23;156.57;;;;;;;14.46;30.35;94779.88;5045821;28;20442;-65
2022/01/26 09:09:21;;;;;;;192.68;154.82;;;;;;;14.40;30.29;94791.50;5049533;28;20066;-66
2022/01/26 09:11:48;;;;;;;191.18;151.75;;;;;;;14.35;30.41;94783.91;5045409;28;20045;-65
2022/01/26 09:14:19;;;;;;;196.85;158.25;;;;;;;14.30;30.41;94782.44;5041781;28;20806;-65
2022/01/26 09:16:46;;;;;;;191.50;154.27;;;;;;;14.29;30.60;94782.88;5045339;28;20054;-66
2022/01/26 09:19:27;;;;;;;196.68;157.23;;;;;;;14.36;30.53;94786.19;5042980;28;20561;-64
2022/01/26 09:21:57;;;;;;;187.63;149.13;;;;;;;14.43;30.45;94788.78;5049511;28;20157;-65
2022/01/26 09:24:27;;;;;;;197.70;158.10;;;;;;;14.46;30.20;94792.56;5048408;28;20036;-65
2022/01/26 09:26:52;;;;;;;194.10;155.60;;;;;;;14.49;30.27;94797.13;5045925;28;20152;-64
2022/01/26 09:29:18;;;;;;;192.77;153.73;;;;;;;14.50;30.38;94794.03;5043724;28;20041;-65
2022/01/26 09:31:47;;;;;;;192.23;154.60;;;;;;;14.53;30.46;94794.38;5043435;28;20068;-66
2022/01/26 09:34:15;;;;;;;196.70;157.33;;;;;;;14.54;30.32;94793.97;5043970;28;20049;-64
2022/01/26 09:36:40;;;;;;;192.40;153.52;;;;;;;14.54;30.43;94785.13;5045009;28;20311;-65
2022/01/26 09:39:06;;;;;;;196.63;158.05;;;;;;;14.55;30.40;94792.78;5043555;28;20052;-64
2022/01/26 09:41:32;;;;;;;200.98;159.23;;;;;;;14.56;30.51;94793.56;5042937;28;20089;-64
2022/01/26 09:44:02;;;;;;;190.80;154.35;;;;;;;14.56;30.44;94791.63;5042866;28;20067;-64
2022/01/26 09:46:28;;;;;;;;;;;;;;;14.57;30.57;94787.75;5045774;28;20967;-65
2022/01/26 09:48:54;;;;;;;203.20;160.70;;;;;;;14.56;30.38;94791.63;5046589;28;20184;-64
2022/01/26 09:51:20;;;;;;;195.70;155.57;;;;;;;14.57;30.50;94793.16;5045060;28;20049;-64
2022/01/26 09:53:58;;;;;;;192.43;153.95;;;;;;;14.56;30.50;94799.69;5044091;28;20686;-64
2022/01/26 09:56:24;;;;;;;196.10;158.10;;;;;;;14.58;30.51;94786.59;5048862;28;20045;-64
2022/01/26 09:58:50;;;;;;;191.60;152.73;;;;;;;14.58;30.49;94785.84;5045453;28;20066;-65
2022/01/26 10:01:16;;;;;;;194.20;157.45;;;;;;;14.57;30.43;94781.63;5045465;28;20090;-64
2022/01/26 10:03:44;;;;;;;193.27;155.60;;;;;;;14.55;30.44;94783.97;5042613;28;20427;-64
2022/01/26 10:06:24;;;;;;;194.60;156.02;;;;;;;14.51;30.66;94789.41;5044183;28;20147;-65
2022/01/26 10:09:00;;;;;;;190.52;153.63;;;;;;;14.48;30.60;94774.84;5045433;28;20045;-64
2022/01/26 10:19:26;;;;;;;192.25;154.63;;;;;;;14.55;30.78;94782.03;5040686;28;20044;-64
2022/01/26 10:21:52;;;;;;;189.98;153.60;;;;;;;14.54;30.84;94787.81;5047651;28;20056;-64
2022/01/26 10:24:28;;;;;;;198.73;158.88;;;;;;;14.52;30.87;94779.41;5045614;28;20057;-64
2022/01/26 10:26:58;;;;;;;200.77;162.63;;;;;;;14.53;30.85;94781.69;5043372;28;20044;-64
2022/01/26 10:29:24;;;;;;;190.80;151.13;;;;;;;14.54;30.63;94777.81;5042551;28;20257;-64
2022/01/26 10:31:50;;;;;;;191.15;154.10;;;;;;;14.54;30.84;94766.28;5040103;28;20698;-64
2022/01/26 10:34:19;;;;;;;195.95;156.60;;;;;;;14.55;30.61;94760.50;5040735;28;20508;-64
2022/01/26 10:36:54;;;;;;;194.98;156.30;;;;;;;14.57;30.24;94760.84;5043469;28;20049;-64
2022/01/26 10:39:37;;;;;;;195.80;156.50;;;;;;;14.57;30.63;94758.16;5043134;28;20702;-64
2022/01/26 10:42:06;;;;;;;198.05;158.45;;;;;;;14.57;30.82;94760.84;5042553;28;20430;-64
2022/01/26 10:44:39;;;;;;;192.25;153.80;;;;;;;14.57;30.86;94758.16;5039961;28;20094;-64
2022/01/26 10:47:07;;;;;;;192.93;154.80;;;;;;;14.56;30.85;94747.81;5044742;28;20488;-65
2022/01/26 10:50:06;;;;;;;192.27;155.60;;;;;;;14.57;30.83;94746.63;5041552;28;20055;-65
2022/01/26 10:54:58;;;;;;;200.18;161.48;;;;;;;14.56;30.67;94747.81;5043734;28;20052;-64
2022/01/26 10:57:25;;;;;;;194.85;156.32;;;;;;;14.53;30.86;94746.69;5043439;28;20063;-64
2022/01/26 10:59:52;;;;;;;195.10;157.82;;;;;;;14.53;30.86;94754.00;5044170;28;20049;-64
2022/01/26 11:02:28;;;;;;;192.40;155.43;;;;;;;14.52;30.87;94755.94;5046983;28;20098;-66
2022/01/26 11:04:54;;;;;;;199.27;159.63;;;;;;;14.50;30.93;94756.34;5048642;28;20475;-64
2022/01/26 11:07:34;;;;;;;193.88;156.88;;;;;;;14.48;30.84;94755.25;5043276;28;20033;-65
2022/01/26 11:10:03;;;;;;;191.90;154.05;;;;;;;14.47;30.76;94749.09;5043491;28;20048;-66
2022/01/26 11:12:30;;;;;;;212.23;170.32;;;;;;;14.48;30.81;94750.63;5041102;28;20032;-67
2022/01/26 11:15:06;;;;;;;196.60;158.55;;;;;;;14.48;30.76;94736.41;5038106;28;20105;-66
2022/01/26 11:17:35;;;;;;;195.60;156.93;;;;;;;14.49;30.58;94727.91;5040747;28;20052;-65
2022/01/26 11:20:03;;;;;;;192.90;154.95;;;;;;;14.49;30.47;94719.09;5044121;28;20049;-67
2022/01/26 11:22:31;;;;;;;216.80;173.70;;;;;;;14.49;30.40;94722.53;5030364;28;20072;-66
2022/01/26 11:25:11;;;;;;;202.90;162.10;;;;;;;14.46;30.46;94717.22;5031705;28;21009;-66
2022/01/26 11:27:39;;;;;;;195.02;155.88;;;;;;;14.50;30.41;94710.59;5041177;28;20145;-64
2022/01/26 11:30:33;;;;;;;198.50;158.80;;;;;;;14.54;30.33;94712.47;5040859;28;20119;-64
2022/01/26 11:33:12;;;;;;;204.38;163.60;;;;;;;14.54;30.42;94699.75;5040307;28;20465;-64
2022/01/26 11:35:43;;;;;;;204.73;164.38;;;;;;;14.52;30.60;94691.34;5032475;28;20044;-65
2022/01/26 11:47:25;;;;;;;193.50;151.73;;;;;;;14.54;30.40;94686.31;5040710;28;20048;-67
2022/01/26 11:50:02;;;;;;;197.30;157.80;;;;;;;14.53;30.44;94682.09;5042613;28;20118;-68
2022/01/26 11:52:37;;;;;;;204.27;162.95;;;;;;;14.53;30.45;94687.47;5041488;28;20057;-67
2022/01/26 11:55:29;;;;;;;191.48;152.85;;;;;;;14.52;30.58;94677.88;5045860;28;20067;-67
2022/01/26 11:58:16;;;;;;;191.00;152.77;;;;;;;14.52;30.35;94672.50;5042869;28;20059;-68
2022/01/26 12:00:52;;;;;;;193.73;154.95;;;;;;;14.54;30.32;94670.16;5054180;28;20404;-68
2022/01/26 12:03:26;;;;;;;192.38;154.07;;;;;;;14.56;30.33;94664.38;5045198;28;20101;-68
2022/01/26 12:05:56;;;;;;;193.68;155.80;;;;;;;14.52;30.25;94666.38;5046494;28;20409;-68
2022/01/26 12:08:39;;;;;;;196.40;157.88;;;;;;;14.48;30.21;94661.81;5047548;28;20121;-68
2022/01/26 12:11:09;;;;;;;199.38;159.60;;;;;;;14.49;30.31;94660.63;5049887;28;20055;-68
2022/01/26 12:13:37;;;;;;;197.02;158.05;;;;;;;14.48;30.20;94671.81;5043737;28;20060;-68
2022/01/26 12:16:11;;;;;;;189.88;151.95;;;;;;;14.47;30.10;94681.06;5045625;28;20041;-68
2022/01/26 12:18:57;;;;;;;192.00;153.52;;;;;;;14.46;30.20;94666.84;5043577;28;20181;-68
2022/01/26 12:38:19;;;;;;;187.45;149.35;;;;;;;14.43;30.11;94686.50;5033483;28;20128;-68
2022/01/26 12:43:55;;;;;;;194.18;153.88;;;;;;;14.37;30.03;94698.91;5042116;28;20067;-68
2022/01/26 12:46:23;;;;;;;200.85;158.35;;;;;;;14.33;30.33;94708.97;5043961;28;20934;-68
2022/01/26 12:48:56;;;;;;;190.38;149.75;;;;;;;14.34;29.96;94709.72;5045768;28;20655;-67
2022/01/26 12:51:22;;;;;;;200.95;161.07;;;;;;;14.39;30.03;94701.19;5043399;28;20132;-67
2022/01/26 12:53:56;;;;;;;191.40;152.65;;;;;;;14.43;30.09;94709.97;5045384;28;20048;-68
2022/01/26 12:56:25;;;;;;;192.77;154.27;;;;;;;14.45;29.94;94697.63;5042063;28;20552;-68
2022/01/26 12:58:59;;;;;;;194.43;155.00;;;;;;;14.47;30.09;94703.34;5045296;28;20092;-68
2022/01/26 13:01:25;;;;;;;195.55;156.63;;;;;;;14.47;30.10;94713.34;5046882;28;20048;-67
2022/01/26 13:03:56;;;;;;;191.63;153.82;;;;;;;14.45;29.92;94703.00;5045504;28;20071;-68
2022/01/26 13:06:28;;;;;;;188.82;150.23;;;;;;;14.46;30.15;94698.38;5043448;28;20045;-67
2022/01/26 13:09:01;;;;;;;189.98;152.60;;;;;;;14.48;30.02;94693.34;5047681;28;20048;-69
2022/01/26 13:11:35;;;;;;;190.10;152.68;;;;;;;14.49;30.22;94689.47;5044214;28;20049;-69
2022/01/26 13:14:20;;;;;;;190.52;152.07;;;;;;;14.50;30.09;94682.94;5043806;28;20147;-68